Station Historical Data
Daily Summary for April 18, 2017 Units:  Both    English   Metric
« Previous Day
Next Day »
Daily Weekly Monthly Yearly Custom
  High: Low: Average:
Temperature: 61.0 °F /  16.1 °C 33.5 °F /  0.8 °C 47 °F /  8.3 °C
Dew Point: 40.1 °F /  4.5 °C 29.5 °F /  -1.4 °C 35.3 °F /  1.8 °C
Humidity: 87% 43% 66%
Wind Speed: 11.0mph /  17.7km/h - 3mph /  4.8km/h
Wind Gust: 13.0mph /  20.9km/h - -
Wind- - ESE
Pressure: 30.43 in /  1030.4 hPa 30.23 in /  1023.6 hPa -
Precipitation: 0.00 in /  0 mm    
Historical Graphs
 
 
Tabular Data for April 18, 2017
Time Temperature Dew Point Pressure Wind Wind Speed Wind Gust Humidity Rainfall Rate (Hourly)
00:04 39.8 °F /  4.3 °C 32.2 °F /  0.1 °C 30.29in /  1025.6hPa North 2.0mph /  3.2km/h 6.0mph /  9.7km/h 74% 0.00in /  0mm
00:09 39.6 °F /  4.2 °C 32.0 °F /  0 °C 30.29in /  1025.6hPa North 3.0mph /  4.8km/h 7.0mph /  11.3km/h 74% 0.00in /  0mm
00:14 39.5 °F /  4.2 °C 31.9 °F /  -0.1 °C 30.30in /  1026hPa NNE 1.0mph /  1.6km/h 5.0mph /  8km/h 74% 0.00in /  0mm
00:19 39.3 °F /  4.1 °C 31.7 °F /  -0.2 °C 30.30in /  1026hPa NNE 3.0mph /  4.8km/h 4.0mph /  6.4km/h 74% 0.00in /  0mm
00:24 39.3 °F /  4.1 °C 31.7 °F /  -0.2 °C 30.30in /  1026hPa North 1.0mph /  1.6km/h 5.0mph /  8km/h 74% 0.00in /  0mm
00:29 39.0 °F /  3.9 °C 31.7 °F /  -0.2 °C 30.31in /  1026.3hPa NNW 3.0mph /  4.8km/h 4.0mph /  6.4km/h 75% 0.00in /  0mm
00:34 38.8 °F /  3.8 °C 31.9 °F /  -0.1 °C 30.31in /  1026.3hPa NNW 2.0mph /  3.2km/h 5.0mph /  8km/h 76% 0.00in /  0mm
00:39 38.6 °F /  3.7 °C 32.0 °F /  0 °C 30.31in /  1026.3hPa NNW 3.0mph /  4.8km/h 6.0mph /  9.7km/h 77% 0.00in /  0mm
00:44 38.4 °F /  3.6 °C 31.8 °F /  -0.1 °C 30.31in /  1026.3hPa NNW 2.0mph /  3.2km/h 6.0mph /  9.7km/h 77% 0.00in /  0mm
00:49 38.2 °F /  3.4 °C 31.9 °F /  -0.1 °C 30.31in /  1026.3hPa NNW 1.0mph /  1.6km/h 5.0mph /  8km/h 78% 0.00in /  0mm
00:54 37.9 °F /  3.3 °C 31.7 °F /  -0.2 °C 30.31in /  1026.3hPa NNW 1.0mph /  1.6km/h 4.0mph /  6.4km/h 78% 0.00in /  0mm
00:59 37.6 °F /  3.1 °C 31.7 °F /  -0.2 °C 30.32in /  1026.6hPa NNW 2.0mph /  3.2km/h 3.0mph /  4.8km/h 79% 0.00in /  0mm
01:04 37.4 °F /  3 °C 31.5 °F /  -0.3 °C 30.32in /  1026.6hPa NNW 1.0mph /  1.6km/h 3.0mph /  4.8km/h 79% 0.00in /  0mm
01:09 37.2 °F /  2.9 °C 31.6 °F /  -0.2 °C 30.32in /  1026.6hPa NNW 1.0mph /  1.6km/h 5.0mph /  8km/h 80% 0.00in /  0mm
01:14 37.3 °F /  2.9 °C 31.4 °F /  -0.3 °C 30.32in /  1026.6hPa North 2.0mph /  3.2km/h 5.0mph /  8km/h 79% 0.00in /  0mm
01:19 37.3 °F /  2.9 °C 31.4 °F /  -0.3 °C 30.32in /  1026.6hPa North 2.0mph /  3.2km/h 5.0mph /  8km/h 79% 0.00in /  0mm
01:24 37.3 °F /  2.9 °C 31.4 °F /  -0.3 °C 30.32in /  1026.6hPa NNW 2.0mph /  3.2km/h 5.0mph /  8km/h 79% 0.00in /  0mm
01:29 37.2 °F /  2.9 °C 31.3 °F /  -0.4 °C 30.32in /  1026.6hPa NNE 2.0mph /  3.2km/h 4.0mph /  6.4km/h 79% 0.00in /  0mm
01:34 37.1 °F /  2.8 °C 31.2 °F /  -0.4 °C 30.32in /  1026.6hPa NNW 2.0mph /  3.2km/h 4.0mph /  6.4km/h 79% 0.00in /  0mm
01:39 36.9 °F /  2.7 °C 31.0 °F /  -0.6 °C 30.32in /  1026.6hPa North 2.0mph /  3.2km/h 4.0mph /  6.4km/h 79% 0.00in /  0mm
01:44 36.7 °F /  2.6 °C 31.1 °F /  -0.5 °C 30.33in /  1027hPa NNW 2.0mph /  3.2km/h 4.0mph /  6.4km/h 80% 0.00in /  0mm
01:49 36.5 °F /  2.5 °C 30.9 °F /  -0.6 °C 30.32in /  1026.6hPa NNW 2.0mph /  3.2km/h 3.0mph /  4.8km/h 80% 0.00in /  0mm
01:54 36.4 °F /  2.4 °C 30.8 °F /  -0.7 °C 30.33in /  1027hPa North 4.0mph /  6.4km/h 5.0mph /  8km/h 80% 0.00in /  0mm
01:59 36.4 °F /  2.4 °C 31.1 °F /  -0.5 °C 30.33in /  1027hPa North 2.0mph /  3.2km/h 4.0mph /  6.4km/h 81% 0.00in /  0mm
02:04 36.4 °F /  2.4 °C 31.1 °F /  -0.5 °C 30.33in /  1027hPa North 1.0mph /  1.6km/h 4.0mph /  6.4km/h 81% 0.00in /  0mm
02:09 36.2 °F /  2.3 °C 30.9 °F /  -0.6 °C 30.33in /  1027hPa Calm   2.0mph /  3.2km/h 81% 0.00in /  0mm
02:14 35.9 °F /  2.2 °C 30.6 °F /  -0.8 °C 30.33in /  1027hPa Calm     81% 0.00in /  0mm
02:19 35.7 °F /  2.1 °C 30.7 °F /  -0.7 °C 30.33in /  1027hPa Calm     82% 0.00in /  0mm
02:29 35.7 °F /  2.1 °C 30.7 °F /  -0.7 °C 30.33in /  1027hPa Calm   4.0mph /  6.4km/h 82% 0.00in /  0mm
02:34 35.7 °F /  2.1 °C 30.7 °F /  -0.7 °C 30.33in /  1027hPa NNW 2.0mph /  3.2km/h 5.0mph /  8km/h 82% 0.00in /  0mm
02:39 35.6 °F /  2 °C 30.6 °F /  -0.8 °C 30.33in /  1027hPa NNW 2.0mph /  3.2km/h 4.0mph /  6.4km/h 82% 0.00in /  0mm
02:44 35.4 °F /  1.9 °C 30.5 °F /  -0.8 °C 30.33in /  1027hPa NNW 1.0mph /  1.6km/h 2.0mph /  3.2km/h 82% 0.00in /  0mm
02:49 35.4 °F /  1.9 °C 30.5 °F /  -0.8 °C 30.33in /  1027hPa Calm   2.0mph /  3.2km/h 82% 0.00in /  0mm
02:54 35.1 °F /  1.7 °C 30.5 °F /  -0.8 °C 30.33in /  1027hPa Calm   2.0mph /  3.2km/h 83% 0.00in /  0mm
02:59 34.9 °F /  1.6 °C 30.3 °F /  -0.9 °C 30.33in /  1027hPa Calm     83% 0.00in /  0mm
03:04 34.6 °F /  1.4 °C 30.0 °F /  -1.1 °C 30.33in /  1027hPa Calm   3.0mph /  4.8km/h 83% 0.00in /  0mm
03:09 34.8 °F /  1.6 °C 30.5 °F /  -0.8 °C 30.33in /  1027hPa NNW 1.0mph /  1.6km/h 4.0mph /  6.4km/h 84% 0.00in /  0mm
03:14 34.8 °F /  1.6 °C 30.5 °F /  -0.8 °C 30.33in /  1027hPa NNW 1.0mph /  1.6km/h 4.0mph /  6.4km/h 84% 0.00in /  0mm
03:19 34.7 °F /  1.5 °C 30.4 °F /  -0.9 °C 30.33in /  1027hPa NNW 1.0mph /  1.6km/h 2.0mph /  3.2km/h 84% 0.00in /  0mm
03:24 34.6 °F /  1.4 °C 30.3 °F /  -0.9 °C 30.34in /  1027.3hPa Calm     84% 0.00in /  0mm
03:29 34.4 °F /  1.3 °C 30.1 °F /  -1.1 °C 30.34in /  1027.3hPa Calm   1.0mph /  1.6km/h 84% 0.00in /  0mm
03:34 34.4 °F /  1.3 °C 30.1 °F /  -1.1 °C 30.34in /  1027.3hPa Calm     84% 0.00in /  0mm
03:39 34.1 °F /  1.2 °C 30.1 °F /  -1.1 °C 30.34in /  1027.3hPa Calm   2.0mph /  3.2km/h 85% 0.00in /  0mm
03:44 34.1 °F /  1.2 °C 30.1 °F /  -1.1 °C 30.34in /  1027.3hPa Calm   2.0mph /  3.2km/h 85% 0.00in /  0mm
03:49 33.9 °F /  1.1 °C 29.9 °F /  -1.2 °C 30.35in /  1027.7hPa Calm     85% 0.00in /  0mm
03:54 33.8 °F /  1 °C 29.8 °F /  -1.2 °C 30.35in /  1027.7hPa Calm     85% 0.00in /  0mm
03:59 33.9 °F /  1.1 °C 29.9 °F /  -1.2 °C 30.35in /  1027.7hPa Calm   2.0mph /  3.2km/h 85% 0.00in /  0mm
04:04 33.9 °F /  1.1 °C 29.9 °F /  -1.2 °C 30.35in /  1027.7hPa Calm   2.0mph /  3.2km/h 85% 0.00in /  0mm
04:09 33.5 °F /  0.8 °C 29.5 °F /  -1.4 °C 30.35in /  1027.7hPa Calm   2.0mph /  3.2km/h 85% 0.00in /  0mm
04:14 33.6 °F /  0.9 °C 29.9 °F /  -1.2 °C 30.35in /  1027.7hPa Calm     86% 0.00in /  0mm
04:19 33.9 °F /  1.1 °C 30.2 °F /  -1 °C 30.35in /  1027.7hPa NNW 2.0mph /  3.2km/h 3.0mph /  4.8km/h 86% 0.00in /  0mm
04:24 33.8 °F /  1 °C 30.1 °F /  -1.1 °C 30.35in /  1027.7hPa NNW 2.0mph /  3.2km/h 3.0mph /  4.8km/h 86% 0.00in /  0mm
04:29 33.9 °F /  1.1 °C 30.2 °F /  -1 °C 30.35in /  1027.7hPa Calm   3.0mph /  4.8km/h 86% 0.00in /  0mm
04:34 33.8 °F /  1 °C 30.1 °F /  -1.1 °C 30.35in /  1027.7hPa NNW 1.0mph /  1.6km/h 3.0mph /  4.8km/h 86% 0.00in /  0mm
04:39 33.9 °F /  1.1 °C 30.2 °F /  -1 °C 30.35in /  1027.7hPa Calm   3.0mph /  4.8km/h 86% 0.00in /  0mm
04:44 34.1 °F /  1.2 °C 30.4 °F /  -0.9 °C 30.35in /  1027.7hPa NNW 2.0mph /  3.2km/h 3.0mph /  4.8km/h 86% 0.00in /  0mm
04:49 34.2 °F /  1.2 °C 30.4 °F /  -0.9 °C 30.35in /  1027.7hPa NNW 1.0mph /  1.6km/h 3.0mph /  4.8km/h 86% 0.00in /  0mm
04:54 34.1 °F /  1.2 °C 30.4 °F /  -0.9 °C 30.36in /  1028hPa NNW 1.0mph /  1.6km/h 3.0mph /  4.8km/h 86% 0.00in /  0mm
04:59 34.1 °F /  1.2 °C 30.4 °F /  -0.9 °C 30.36in /  1028hPa NNW 1.0mph /  1.6km/h 3.0mph /  4.8km/h 86% 0.00in /  0mm
05:04 34.0 °F /  1.1 °C 30.3 °F /  -0.9 °C 30.36in /  1028hPa NNW 1.0mph /  1.6km/h 2.0mph /  3.2km/h 86% 0.00in /  0mm
05:09 34.0 °F /  1.1 °C 30.5 °F /  -0.8 °C 30.35in /  1027.7hPa NNW 1.0mph /  1.6km/h 3.0mph /  4.8km/h 87% 0.00in /  0mm
05:14 34.0 °F /  1.1 °C 30.5 °F /  -0.8 °C 30.36in /  1028hPa NNW 2.0mph /  3.2km/h 3.0mph /  4.8km/h 87% 0.00in /  0mm
05:19 33.9 °F /  1.1 °C 30.4 °F /  -0.9 °C 30.36in /  1028hPa North 1.0mph /  1.6km/h 3.0mph /  4.8km/h 87% 0.00in /  0mm
05:24 33.9 °F /  1.1 °C 30.4 °F /  -0.9 °C 30.36in /  1028hPa North 2.0mph /  3.2km/h 3.0mph /  4.8km/h 87% 0.00in /  0mm
05:29 34.0 °F /  1.1 °C 30.5 °F /  -0.8 °C 30.36in /  1028hPa North 2.0mph /  3.2km/h 3.0mph /  4.8km/h 87% 0.00in /  0mm
05:34 33.9 °F /  1.1 °C 30.4 °F /  -0.9 °C 30.36in /  1028hPa NNE 2.0mph /  3.2km/h 6.0mph /  9.7km/h 87% 0.00in /  0mm
05:39 34.0 °F /  1.1 °C 30.3 °F /  -0.9 °C 30.36in /  1028hPa NE 2.0mph /  3.2km/h 6.0mph /  9.7km/h 86% 0.00in /  0mm
05:44 34.0 °F /  1.1 °C 30.3 °F /  -0.9 °C 30.36in /  1028hPa NE 2.0mph /  3.2km/h 5.0mph /  8km/h 86% 0.00in /  0mm
05:49 33.9 °F /  1.1 °C 30.2 °F /  -1 °C 30.36in /  1028hPa NE 2.0mph /  3.2km/h 5.0mph /  8km/h 86% 0.00in /  0mm
05:54 33.9 °F /  1.1 °C 30.2 °F /  -1 °C 30.36in /  1028hPa NE 2.0mph /  3.2km/h 4.0mph /  6.4km/h 86% 0.00in /  0mm
05:59 33.8 °F /  1 °C 30.1 °F /  -1.1 °C 30.37in /  1028.3hPa ENE 2.0mph /  3.2km/h 4.0mph /  6.4km/h 86% 0.00in /  0mm
06:04 33.9 °F /  1.1 °C 30.2 °F /  -1 °C 30.37in /  1028.3hPa NE 3.0mph /  4.8km/h 4.0mph /  6.4km/h 86% 0.00in /  0mm
06:09 34.0 °F /  1.1 °C 30.3 °F /  -0.9 °C 30.37in /  1028.3hPa NE 2.0mph /  3.2km/h 5.0mph /  8km/h 86% 0.00in /  0mm
06:14 33.9 °F /  1.1 °C 30.2 °F /  -1 °C 30.37in /  1028.3hPa NE 2.0mph /  3.2km/h 5.0mph /  8km/h 86% 0.00in /  0mm
06:19 33.9 °F /  1.1 °C 30.2 °F /  -1 °C 30.37in /  1028.3hPa NE 1.0mph /  1.6km/h 4.0mph /  6.4km/h 86% 0.00in /  0mm
06:24 33.8 °F /  1 °C 30.1 °F /  -1.1 °C 30.38in /  1028.7hPa NE 2.0mph /  3.2km/h 4.0mph /  6.4km/h 86% 0.00in /  0mm
06:29 33.8 °F /  1 °C 30.1 °F /  -1.1 °C 30.38in /  1028.7hPa NE 1.0mph /  1.6km/h 3.0mph /  4.8km/h 86% 0.00in /  0mm
06:34 33.7 °F /  0.9 °C 30.0 °F /  -1.1 °C 30.38in /  1028.7hPa NE 1.0mph /  1.6km/h 3.0mph /  4.8km/h 86% 0.00in /  0mm
06:39 33.7 °F /  0.9 °C 30.0 °F /  -1.1 °C 30.38in /  1028.7hPa Calm   2.0mph /  3.2km/h 86% 0.00in /  0mm
06:44 33.7 °F /  0.9 °C 30.0 °F /  -1.1 °C 30.39in /  1029hPa NE 1.0mph /  1.6km/h 3.0mph /  4.8km/h 86% 0.00in /  0mm
06:49 33.8 °F /  1 °C 30.1 °F /  -1.1 °C 30.39in /  1029hPa NE 4.0mph /  6.4km/h 4.0mph /  6.4km/h 86% 0.00in /  0mm
06:54 34.0 °F /  1.1 °C 30.3 °F /  -0.9 °C 30.39in /  1029hPa NE 1.0mph /  1.6km/h 4.0mph /  6.4km/h 86% 0.00in /  0mm
06:59 34.2 °F /  1.2 °C 30.4 °F /  -0.9 °C 30.39in /  1029hPa NE 2.0mph /  3.2km/h 4.0mph /  6.4km/h 86% 0.00in /  0mm
07:04 34.3 °F /  1.3 °C 30.5 °F /  -0.8 °C 30.39in /  1029hPa NE 3.0mph /  4.8km/h 3.0mph /  4.8km/h 86% 0.00in /  0mm
07:09 34.6 °F /  1.4 °C 30.6 °F /  -0.8 °C 30.39in /  1029hPa Calm   4.0mph /  6.4km/h 85% 0.00in /  0mm
07:14 34.8 °F /  1.6 °C 30.8 °F /  -0.7 °C 30.40in /  1029.3hPa NE 2.0mph /  3.2km/h 5.0mph /  8km/h 85% 0.00in /  0mm
07:19 35.2 °F /  1.8 °C 31.1 °F /  -0.5 °C 30.40in /  1029.3hPa ENE 4.0mph /  6.4km/h 4.0mph /  6.4km/h 85% 0.00in /  0mm
07:24 35.7 °F /  2.1 °C 31.3 °F /  -0.4 °C 30.40in /  1029.3hPa NE 3.0mph /  4.8km/h 7.0mph /  11.3km/h 84% 0.00in /  0mm
07:29 36.0 °F /  2.2 °C 31.3 °F /  -0.4 °C 30.40in /  1029.3hPa NE 4.0mph /  6.4km/h 8.0mph /  12.9km/h 83% 0.00in /  0mm
07:34 36.3 °F /  2.4 °C 31.6 °F /  -0.2 °C 30.40in /  1029.3hPa NE 4.0mph /  6.4km/h 8.0mph /  12.9km/h 83% 0.00in /  0mm
07:39 36.7 °F /  2.6 °C 31.7 °F /  -0.2 °C 30.40in /  1029.3hPa NE 4.0mph /  6.4km/h 9.0mph /  14.5km/h 82% 0.00in /  0mm
07:44 37.0 °F /  2.8 °C 31.7 °F /  -0.2 °C 30.40in /  1029.3hPa NE 6.0mph /  9.7km/h 9.0mph /  14.5km/h 81% 0.00in /  0mm
07:49 37.3 °F /  2.9 °C 31.7 °F /  -0.2 °C 30.40in /  1029.3hPa NE 6.0mph /  9.7km/h 9.0mph /  14.5km/h 80% 0.00in /  0mm
07:54 37.7 °F /  3.2 °C 31.8 °F /  -0.1 °C 30.40in /  1029.3hPa ENE 4.0mph /  6.4km/h 9.0mph /  14.5km/h 79% 0.00in /  0mm
07:59 38.1 °F /  3.4 °C 31.8 °F /  -0.1 °C 30.41in /  1029.7hPa ENE 4.0mph /  6.4km/h 10.0mph /  16.1km/h 78% 0.00in /  0mm
08:04 38.4 °F /  3.6 °C 31.8 °F /  -0.1 °C 30.41in /  1029.7hPa ENE 4.0mph /  6.4km/h 10.0mph /  16.1km/h 77% 0.00in /  0mm
08:09 38.5 °F /  3.6 °C 31.9 °F /  -0.1 °C 30.41in /  1029.7hPa East 5.0mph /  8km/h 10.0mph /  16.1km/h 77% 0.00in /  0mm
08:14 39.1 °F /  3.9 °C 32.2 °F /  0.1 °C 30.41in /  1029.7hPa East 3.0mph /  4.8km/h 8.0mph /  12.9km/h 76% 0.00in /  0mm
08:19 39.4 °F /  4.1 °C 32.5 °F /  0.3 °C 30.42in /  1030hPa ENE 4.0mph /  6.4km/h 10.0mph /  16.1km/h 76% 0.00in /  0mm
08:24 39.8 °F /  4.3 °C 32.5 °F /  0.3 °C 30.41in /  1029.7hPa ENE 4.0mph /  6.4km/h 10.0mph /  16.1km/h 75% 0.00in /  0mm
08:29 40.2 °F /  4.6 °C 32.9 °F /  0.5 °C 30.41in /  1029.7hPa SE 5.0mph /  8km/h 7.0mph /  11.3km/h 75% 0.00in /  0mm
08:34 40.4 °F /  4.7 °C 33.1 °F /  0.6 °C 30.41in /  1029.7hPa ENE 2.0mph /  3.2km/h 8.0mph /  12.9km/h 75% 0.00in /  0mm
08:39 40.7 °F /  4.8 °C 33.4 °F /  0.8 °C 30.41in /  1029.7hPa ENE 7.0mph /  11.3km/h 12.0mph /  19.3km/h 75% 0.00in /  0mm
08:44 41.0 °F /  5 °C 33.3 °F /  0.7 °C 30.41in /  1029.7hPa NE 4.0mph /  6.4km/h 8.0mph /  12.9km/h 74% 0.00in /  0mm
08:49 41.1 °F /  5.1 °C 33.4 °F /  0.8 °C 30.42in /  1030hPa East 5.0mph /  8km/h 9.0mph /  14.5km/h 74% 0.00in /  0mm
08:54 41.3 °F /  5.2 °C 33.6 °F /  0.9 °C 30.42in /  1030hPa East 4.0mph /  6.4km/h 9.0mph /  14.5km/h 74% 0.00in /  0mm
08:59 41.8 °F /  5.4 °C 33.8 °F /  1 °C 30.42in /  1030hPa ENE 4.0mph /  6.4km/h 8.0mph /  12.9km/h 73% 0.00in /  0mm
09:04 42.6 °F /  5.9 °C 34.5 °F /  1.4 °C 30.42in /  1030hPa SE 2.0mph /  3.2km/h 6.0mph /  9.7km/h 73% 0.00in /  0mm
09:09 42.6 °F /  5.9 °C 34.5 °F /  1.4 °C 30.42in /  1030hPa East 3.0mph /  4.8km/h 8.0mph /  12.9km/h 73% 0.00in /  0mm
09:14 43.1 °F /  6.2 °C 34.7 °F /  1.5 °C 30.42in /  1030hPa ENE 3.0mph /  4.8km/h 8.0mph /  12.9km/h 72% 0.00in /  0mm
09:19 42.5 °F /  5.8 °C 34.1 °F /  1.2 °C 30.42in /  1030hPa ENE 4.0mph /  6.4km/h 9.0mph /  14.5km/h 72% 0.00in /  0mm
09:24 43.3 °F /  6.3 °C 35.2 °F /  1.8 °C 30.42in /  1030hPa ENE 4.0mph /  6.4km/h 9.0mph /  14.5km/h 73% 0.00in /  0mm
09:29 43.3 °F /  6.3 °C 34.9 °F /  1.6 °C 30.42in /  1030hPa ENE 7.0mph /  11.3km/h 10.0mph /  16.1km/h 72% 0.00in /  0mm
09:34 43.5 °F /  6.4 °C 34.7 °F /  1.5 °C 30.42in /  1030hPa NE 5.0mph /  8km/h 10.0mph /  16.1km/h 71% 0.00in /  0mm
09:39 44.0 °F /  6.7 °C 35.2 °F /  1.8 °C 30.42in /  1030hPa NE 5.0mph /  8km/h 9.0mph /  14.5km/h 71% 0.00in /  0mm
09:44 44.0 °F /  6.7 °C 34.8 °F /  1.6 °C 30.43in /  1030.4hPa SE 4.0mph /  6.4km/h 11.0mph /  17.7km/h 70% 0.00in /  0mm
09:49 43.9 °F /  6.6 °C 34.7 °F /  1.5 °C 30.43in /  1030.4hPa ENE 4.0mph /  6.4km/h 11.0mph /  17.7km/h 70% 0.00in /  0mm
09:54 44.4 °F /  6.9 °C 35.2 °F /  1.8 °C 30.43in /  1030.4hPa ENE 4.0mph /  6.4km/h 9.0mph /  14.5km/h 70% 0.00in /  0mm
09:59 44.9 °F /  7.2 °C 35.7 °F /  2.1 °C 30.42in /  1030hPa ENE 4.0mph /  6.4km/h 9.0mph /  14.5km/h 70% 0.00in /  0mm
10:04 45.4 °F /  7.4 °C 35.1 °F /  1.7 °C 30.42in /  1030hPa ENE 4.0mph /  6.4km/h 8.0mph /  12.9km/h 67% 0.00in /  0mm
10:09 45.1 °F /  7.3 °C 34.8 °F /  1.6 °C 30.42in /  1030hPa ENE 7.0mph /  11.3km/h 10.0mph /  16.1km/h 67% 0.00in /  0mm
10:14 45.5 °F /  7.5 °C 35.9 °F /  2.2 °C 30.42in /  1030hPa NNE 2.0mph /  3.2km/h 10.0mph /  16.1km/h 69% 0.00in /  0mm
10:19 45.8 °F /  7.7 °C 35.8 °F /  2.1 °C 30.42in /  1030hPa NE 5.0mph /  8km/h 10.0mph /  16.1km/h 68% 0.00in /  0mm
10:24 46.0 °F /  7.8 °C 35.7 °F /  2.1 °C 30.43in /  1030.4hPa East 6.0mph /  9.7km/h 9.0mph /  14.5km/h 67% 0.00in /  0mm
10:29 47.0 °F /  8.3 °C 37.0 °F /  2.8 °C 30.42in /  1030hPa South 2.0mph /  3.2km/h 12.0mph /  19.3km/h 68% 0.00in /  0mm
10:34 47.0 °F /  8.3 °C 35.8 °F /  2.1 °C 30.43in /  1030.4hPa ENE 8.0mph /  12.9km/h 10.0mph /  16.1km/h 65% 0.00in /  0mm
10:39 46.7 °F /  8.2 °C 35.6 °F /  2 °C 30.42in /  1030hPa NE 5.0mph /  8km/h 8.0mph /  12.9km/h 65% 0.00in /  0mm
10:44 46.7 °F /  8.2 °C 35.6 °F /  2 °C 30.42in /  1030hPa ENE 5.0mph /  8km/h 9.0mph /  14.5km/h 65% 0.00in /  0mm
10:49 47.0 °F /  8.3 °C 35.4 °F /  1.9 °C 30.43in /  1030.4hPa NE 5.0mph /  8km/h 9.0mph /  14.5km/h 64% 0.00in /  0mm
10:54 47.0 °F /  8.3 °C 35.4 °F /  1.9 °C 30.43in /  1030.4hPa NE 4.0mph /  6.4km/h 8.0mph /  12.9km/h 64% 0.00in /  0mm
10:59 47.8 °F /  8.8 °C 36.2 °F /  2.3 °C 30.43in /  1030.4hPa NNE 3.0mph /  4.8km/h 8.0mph /  12.9km/h 64% 0.00in /  0mm
11:04 48.3 °F /  9.1 °C 35.9 °F /  2.2 °C 30.43in /  1030.4hPa NE 6.0mph /  9.7km/h 9.0mph /  14.5km/h 62% 0.00in /  0mm
11:09 48.3 °F /  9.1 °C 36.3 °F /  2.4 °C 30.43in /  1030.4hPa East 1.0mph /  1.6km/h 7.0mph /  11.3km/h 63% 0.00in /  0mm
11:14 48.6 °F /  9.2 °C 35.7 °F /  2.1 °C 30.43in /  1030.4hPa ENE 4.0mph /  6.4km/h 11.0mph /  17.7km/h 61% 0.00in /  0mm
11:19 48.7 °F /  9.3 °C 35.8 °F /  2.1 °C 30.43in /  1030.4hPa ENE 4.0mph /  6.4km/h 11.0mph /  17.7km/h 61% 0.00in /  0mm
11:24 49.1 °F /  9.5 °C 36.6 °F /  2.6 °C 30.43in /  1030.4hPa NE 1.0mph /  1.6km/h 8.0mph /  12.9km/h 62% 0.00in /  0mm
11:29 48.9 °F /  9.4 °C 36.9 °F /  2.7 °C 30.43in /  1030.4hPa NNE 3.0mph /  4.8km/h 6.0mph /  9.7km/h 63% 0.00in /  0mm
11:34 49.6 °F /  9.8 °C 36.3 °F /  2.4 °C 30.43in /  1030.4hPa East 2.0mph /  3.2km/h 9.0mph /  14.5km/h 60% 0.00in /  0mm
11:39 50.2 °F /  10.1 °C 36.8 °F /  2.7 °C 30.42in /  1030hPa NE 4.0mph /  6.4km/h 9.0mph /  14.5km/h 60% 0.00in /  0mm
11:44 50.8 °F /  10.4 °C 37.0 °F /  2.8 °C 30.42in /  1030hPa NE 3.0mph /  4.8km/h 9.0mph /  14.5km/h 59% 0.00in /  0mm
11:49 50.5 °F /  10.3 °C 36.7 °F /  2.6 °C 30.42in /  1030hPa East 5.0mph /  8km/h 7.0mph /  11.3km/h 59% 0.00in /  0mm
11:54 51.0 °F /  10.6 °C 37.2 °F /  2.9 °C 30.41in /  1029.7hPa NE 7.0mph /  11.3km/h 8.0mph /  12.9km/h 59% 0.00in /  0mm
11:59 51.0 °F /  10.6 °C 38.0 °F /  3.3 °C 30.41in /  1029.7hPa NNE 3.0mph /  4.8km/h 7.0mph /  11.3km/h 61% 0.00in /  0mm
12:04 51.2 °F /  10.7 °C 38.2 °F /  3.4 °C 30.41in /  1029.7hPa NE 2.0mph /  3.2km/h 9.0mph /  14.5km/h 61% 0.00in /  0mm
12:09 51.5 °F /  10.8 °C 37.6 °F /  3.1 °C 30.41in /  1029.7hPa ENE 4.0mph /  6.4km/h 9.0mph /  14.5km/h 59% 0.00in /  0mm
12:14 51.1 °F /  10.6 °C 37.7 °F /  3.2 °C 30.41in /  1029.7hPa ENE 4.0mph /  6.4km/h 9.0mph /  14.5km/h 60% 0.00in /  0mm
12:19 52.0 °F /  11.1 °C 37.7 °F /  3.2 °C 30.41in /  1029.7hPa SSE 5.0mph /  8km/h 9.0mph /  14.5km/h 58% 0.00in /  0mm
12:24 52.5 °F /  11.4 °C 35.8 °F /  2.1 °C 30.40in /  1029.3hPa NE 4.0mph /  6.4km/h 9.0mph /  14.5km/h 53% 0.00in /  0mm
12:29 52.3 °F /  11.3 °C 36.6 °F /  2.6 °C 30.40in /  1029.3hPa NE 4.0mph /  6.4km/h 10.0mph /  16.1km/h 55% 0.00in /  0mm
12:34 51.9 °F /  11.1 °C 36.7 °F /  2.6 °C 30.40in /  1029.3hPa ENE 2.0mph /  3.2km/h 12.0mph /  19.3km/h 56% 0.00in /  0mm
12:39 52.2 °F /  11.2 °C 38.3 °F /  3.5 °C 30.40in /  1029.3hPa NNE 6.0mph /  9.7km/h 11.0mph /  17.7km/h 59% 0.00in /  0mm
12:44 52.5 °F /  11.4 °C 38.1 °F /  3.4 °C 30.40in /  1029.3hPa NNE 3.0mph /  4.8km/h 9.0mph /  14.5km/h 58% 0.00in /  0mm
12:49 53.0 °F /  11.7 °C 37.7 °F /  3.2 °C 30.40in /  1029.3hPa ESE 4.0mph /  6.4km/h 12.0mph /  19.3km/h 56% 0.00in /  0mm
12:54 53.1 °F /  11.7 °C 38.7 °F /  3.7 °C 30.39in /  1029hPa NE 1.0mph /  1.6km/h 6.0mph /  9.7km/h 58% 0.00in /  0mm
12:59 54.1 °F /  12.3 °C 37.3 °F /  2.9 °C 30.39in /  1029hPa ENE 3.0mph /  4.8km/h 8.0mph /  12.9km/h 53% 0.00in /  0mm
13:04 53.5 °F /  11.9 °C 36.8 °F /  2.7 °C 30.39in /  1029hPa NE 3.0mph /  4.8km/h 9.0mph /  14.5km/h 53% 0.00in /  0mm
13:09 53.5 °F /  11.9 °C 38.2 °F /  3.4 °C 30.39in /  1029hPa NE 4.0mph /  6.4km/h 10.0mph /  16.1km/h 56% 0.00in /  0mm
13:14 54.5 °F /  12.5 °C 37.7 °F /  3.2 °C 30.39in /  1029hPa ENE 5.0mph /  8km/h 10.0mph /  16.1km/h 53% 0.00in /  0mm
13:19 54.2 °F /  12.3 °C 35.9 °F /  2.2 °C 30.39in /  1029hPa NNE 4.0mph /  6.4km/h 9.0mph /  14.5km/h 50% 0.00in /  0mm
13:24 54.1 °F /  12.3 °C 38.7 °F /  3.7 °C 30.39in /  1029hPa NNW 2.0mph /  3.2km/h 6.0mph /  9.7km/h 56% 0.00in /  0mm
13:29 55.1 °F /  12.8 °C 37.3 °F /  2.9 °C 30.38in /  1028.7hPa SSE 3.0mph /  4.8km/h 12.0mph /  19.3km/h 51% 0.00in /  0mm
13:34 55.0 °F /  12.8 °C 38.6 °F /  3.7 °C 30.38in /  1028.7hPa ENE 4.0mph /  6.4km/h 12.0mph /  19.3km/h 54% 0.00in /  0mm
13:39 54.5 °F /  12.5 °C 37.2 °F /  2.9 °C 30.38in /  1028.7hPa NE 4.0mph /  6.4km/h 8.0mph /  12.9km/h 52% 0.00in /  0mm
13:44 56.4 °F /  13.6 °C 40.0 °F /  4.4 °C 30.38in /  1028.7hPa ENE 9.0mph /  14.5km/h 9.0mph /  14.5km/h 54% 0.00in /  0mm
13:49 55.6 °F /  13.1 °C 37.2 °F /  2.9 °C 30.38in /  1028.7hPa NE 1.0mph /  1.6km/h 13.0mph /  20.9km/h 50% 0.00in /  0mm
13:54 55.8 °F /  13.2 °C 38.9 °F /  3.8 °C 30.37in /  1028.3hPa NE 11.0mph /  17.7km/h 13.0mph /  20.9km/h 53% 0.00in /  0mm
13:59 55.3 °F /  12.9 °C 38.4 °F /  3.6 °C 30.37in /  1028.3hPa NE 5.0mph /  8km/h 13.0mph /  20.9km/h 53% 0.00in /  0mm
14:04 56.5 °F /  13.6 °C 39.1 °F /  3.9 °C 30.37in /  1028.3hPa NE 6.0mph /  9.7km/h 11.0mph /  17.7km/h 52% 0.00in /  0mm
14:09 56.6 °F /  13.7 °C 39.2 °F /  4 °C 30.37in /  1028.3hPa NE 10.0mph /  16.1km/h 10.0mph /  16.1km/h 52% 0.00in /  0mm
14:14 56.5 °F /  13.6 °C 38.6 °F /  3.7 °C 30.37in /  1028.3hPa ENE 3.0mph /  4.8km/h 10.0mph /  16.1km/h 51% 0.00in /  0mm
14:19 57.6 °F /  14.2 °C 40.1 °F /  4.5 °C 30.37in /  1028.3hPa ESE 3.0mph /  4.8km/h 7.0mph /  11.3km/h 52% 0.00in /  0mm
14:24 57.1 °F /  13.9 °C 37.6 °F /  3.1 °C 30.37in /  1028.3hPa ENE 4.0mph /  6.4km/h 10.0mph /  16.1km/h 48% 0.00in /  0mm
14:29 56.5 °F /  13.6 °C 37.6 °F /  3.1 °C 30.36in /  1028hPa ENE 4.0mph /  6.4km/h 10.0mph /  16.1km/h 49% 0.00in /  0mm
14:34 57.5 °F /  14.2 °C 39.5 °F /  4.2 °C 30.37in /  1028.3hPa ENE 4.0mph /  6.4km/h 9.0mph /  14.5km/h 51% 0.00in /  0mm
14:39 57.6 °F /  14.2 °C 39.1 °F /  3.9 °C 30.37in /  1028.3hPa NE 4.0mph /  6.4km/h 11.0mph /  17.7km/h 50% 0.00in /  0mm
14:44 57.5 °F /  14.2 °C 39.5 °F /  4.2 °C 30.37in /  1028.3hPa ENE 2.0mph /  3.2km/h 8.0mph /  12.9km/h 51% 0.00in /  0mm
14:49 58.5 °F /  14.7 °C 39.9 °F /  4.4 °C 30.37in /  1028.3hPa NNE 5.0mph /  8km/h 6.0mph /  9.7km/h 50% 0.00in /  0mm
14:54 58.4 °F /  14.7 °C 37.1 °F /  2.8 °C 30.36in /  1028hPa NE 3.0mph /  4.8km/h 9.0mph /  14.5km/h 45% 0.00in /  0mm
14:59 58.1 °F /  14.5 °C 39.0 °F /  3.9 °C 30.36in /  1028hPa ENE 4.0mph /  6.4km/h 10.0mph /  16.1km/h 49% 0.00in /  0mm
15:04 57.8 °F /  14.3 °C 38.8 °F /  3.8 °C 30.36in /  1028hPa NNE 4.0mph /  6.4km/h 7.0mph /  11.3km/h 49% 0.00in /  0mm
15:09 58.3 °F /  14.6 °C 38.7 °F /  3.7 °C 30.36in /  1028hPa ENE 2.0mph /  3.2km/h 5.0mph /  8km/h 48% 0.00in /  0mm
15:14 58.6 °F /  14.8 °C 38.4 °F /  3.6 °C 30.36in /  1028hPa NE 2.0mph /  3.2km/h 6.0mph /  9.7km/h 47% 0.00in /  0mm
15:19 58.2 °F /  14.6 °C 37.5 °F /  3.1 °C 30.36in /  1028hPa North 4.0mph /  6.4km/h 8.0mph /  12.9km/h 46% 0.00in /  0mm
15:24 58.7 °F /  14.8 °C 38.5 °F /  3.6 °C 30.35in /  1027.7hPa NNE 3.0mph /  4.8km/h 8.0mph /  12.9km/h 47% 0.00in /  0mm
15:29 59.0 °F /  15 °C 37.1 °F /  2.8 °C 30.35in /  1027.7hPa NNE 3.0mph /  4.8km/h 6.0mph /  9.7km/h 44% 0.00in /  0mm
15:34 59.3 °F /  15.2 °C 37.9 °F /  3.3 °C 30.35in /  1027.7hPa ENE 3.0mph /  4.8km/h 8.0mph /  12.9km/h 45% 0.00in /  0mm
15:39 58.9 °F /  14.9 °C 37.6 °F /  3.1 °C 30.35in /  1027.7hPa North 4.0mph /  6.4km/h 9.0mph /  14.5km/h 45% 0.00in /  0mm
15:44 58.7 °F /  14.8 °C 39.0 °F /  3.9 °C 30.35in /  1027.7hPa North 2.0mph /  3.2km/h 6.0mph /  9.7km/h 48% 0.00in /  0mm
15:49 58.9 °F /  14.9 °C 38.7 °F /  3.7 °C 30.34in /  1027.3hPa ESE 1.0mph /  1.6km/h 6.0mph /  9.7km/h 47% 0.00in /  0mm
15:54 59.0 °F /  15 °C 37.1 °F /  2.8 °C 30.34in /  1027.3hPa North 5.0mph /  8km/h 7.0mph /  11.3km/h 44% 0.00in /  0mm
15:59 59.5 °F /  15.3 °C 37.6 °F /  3.1 °C 30.34in /  1027.3hPa ENE 5.0mph /  8km/h 7.0mph /  11.3km/h 44% 0.00in /  0mm
16:04 59.6 °F /  15.3 °C 38.8 °F /  3.8 °C 30.34in /  1027.3hPa North 4.0mph /  6.4km/h 8.0mph /  12.9km/h 46% 0.00in /  0mm
16:09 59.5 °F /  15.3 °C 37.6 °F /  3.1 °C 30.34in /  1027.3hPa NE 3.0mph /  4.8km/h 7.0mph /  11.3km/h 44% 0.00in /  0mm
16:14 60.2 °F /  15.7 °C 37.6 °F /  3.1 °C 30.33in /  1027hPa NNE 4.0mph /  6.4km/h 5.0mph /  8km/h 43% 0.00in /  0mm
16:19 60.3 °F /  15.7 °C 39.4 °F /  4.1 °C 30.33in /  1027hPa NE 2.0mph /  3.2km/h 8.0mph /  12.9km/h 46% 0.00in /  0mm
16:24 59.7 °F /  15.4 °C 37.7 °F /  3.2 °C 30.33in /  1027hPa NE 4.0mph /  6.4km/h 8.0mph /  12.9km/h 44% 0.00in /  0mm
16:29 59.7 °F /  15.4 °C 38.3 °F /  3.5 °C 30.33in /  1027hPa North 4.0mph /  6.4km/h 8.0mph /  12.9km/h 45% 0.00in /  0mm
16:34 59.8 °F /  15.4 °C 39.0 °F /  3.9 °C 30.32in /  1026.6hPa WNW 1.0mph /  1.6km/h 10.0mph /  16.1km/h 46% 0.00in /  0mm
16:39 61.0 °F /  16.1 °C 39.5 °F /  4.2 °C 30.32in /  1026.6hPa NE 4.0mph /  6.4km/h 5.0mph /  8km/h 45% 0.00in /  0mm
16:44 60.5 °F /  15.8 °C 39.0 °F /  3.9 °C 30.32in /  1026.6hPa NE 7.0mph /  11.3km/h 11.0mph /  17.7km/h 45% 0.00in /  0mm
16:49 60.0 °F /  15.6 °C 38.6 °F /  3.7 °C 30.32in /  1026.6hPa NE 4.0mph /  6.4km/h 11.0mph /  17.7km/h 45% 0.00in /  0mm
16:54 60.2 °F /  15.7 °C 38.8 °F /  3.8 °C 30.32in /  1026.6hPa NE 4.0mph /  6.4km/h 10.0mph /  16.1km/h 45% 0.00in /  0mm
16:59 59.9 °F /  15.5 °C 39.1 °F /  3.9 °C 30.32in /  1026.6hPa NE 4.0mph /  6.4km/h 10.0mph /  16.1km/h 46% 0.00in /  0mm
17:04 60.4 °F /  15.8 °C 39.5 °F /  4.2 °C 30.31in /  1026.3hPa NNW 6.0mph /  9.7km/h 7.0mph /  11.3km/h 46% 0.00in /  0mm
17:09 60.4 °F /  15.8 °C 37.8 °F /  3.2 °C 30.31in /  1026.3hPa NE 3.0mph /  4.8km/h 9.0mph /  14.5km/h 43% 0.00in /  0mm
17:14 60.5 °F /  15.8 °C 38.5 °F /  3.6 °C 30.31in /  1026.3hPa ESE 2.0mph /  3.2km/h 6.0mph /  9.7km/h 44% 0.00in /  0mm
17:19 60.5 °F /  15.8 °C 38.5 °F /  3.6 °C 30.31in /  1026.3hPa ENE 3.0mph /  4.8km/h 10.0mph /  16.1km/h 44% 0.00in /  0mm
17:24 60.2 °F /  15.7 °C 39.3 °F /  4.1 °C 30.31in /  1026.3hPa NE 4.0mph /  6.4km/h 10.0mph /  16.1km/h 46% 0.00in /  0mm
17:29 60.1 °F /  15.6 °C 38.7 °F /  3.7 °C 30.31in /  1026.3hPa NE 4.0mph /  6.4km/h 8.0mph /  12.9km/h 45% 0.00in /  0mm
17:34 60.5 °F /  15.8 °C 38.5 °F /  3.6 °C 30.31in /  1026.3hPa NE 5.0mph /  8km/h 6.0mph /  9.7km/h 44% 0.00in /  0mm
17:39 60.4 °F /  15.8 °C 38.9 °F /  3.8 °C 30.31in /  1026.3hPa NE 6.0mph /  9.7km/h 8.0mph /  12.9km/h 45% 0.00in /  0mm
17:44 60.1 °F /  15.6 °C 38.1 °F /  3.4 °C 30.31in /  1026.3hPa NE 4.0mph /  6.4km/h 9.0mph /  14.5km/h 44% 0.00in /  0mm
17:49 59.9 °F /  15.5 °C 38.5 °F /  3.6 °C 30.31in /  1026.3hPa NE 4.0mph /  6.4km/h 9.0mph /  14.5km/h 45% 0.00in /  0mm
17:54 59.6 °F /  15.3 °C 38.8 °F /  3.8 °C 30.31in /  1026.3hPa NNE 3.0mph /  4.8km/h 8.0mph /  12.9km/h 46% 0.00in /  0mm
17:59 59.8 °F /  15.4 °C 38.4 °F /  3.6 °C 30.31in /  1026.3hPa NNE 3.0mph /  4.8km/h 6.0mph /  9.7km/h 45% 0.00in /  0mm
18:04 59.8 °F /  15.4 °C 38.4 °F /  3.6 °C 30.31in /  1026.3hPa NNE 3.0mph /  4.8km/h 6.0mph /  9.7km/h 45% 0.00in /  0mm
18:09 59.5 °F /  15.3 °C 38.1 °F /  3.4 °C 30.31in /  1026.3hPa NNE 4.0mph /  6.4km/h 8.0mph /  12.9km/h 45% 0.00in /  0mm
18:14 59.6 °F /  15.3 °C 38.2 °F /  3.4 °C 30.31in /  1026.3hPa NE 3.0mph /  4.8km/h 7.0mph /  11.3km/h 45% 0.00in /  0mm
18:19 59.4 °F /  15.2 °C 38.0 °F /  3.3 °C 30.30in /  1026hPa ENE 3.0mph /  4.8km/h 9.0mph /  14.5km/h 45% 0.00in /  0mm
18:24 59.1 °F /  15.1 °C 37.2 °F /  2.9 °C 30.30in /  1026hPa NE 2.0mph /  3.2km/h 8.0mph /  12.9km/h 44% 0.00in /  0mm
18:29 59.0 °F /  15 °C 37.7 °F /  3.2 °C 30.30in /  1026hPa NE 4.0mph /  6.4km/h 9.0mph /  14.5km/h 45% 0.00in /  0mm
18:34 58.9 °F /  14.9 °C 38.1 °F /  3.4 °C 30.30in /  1026hPa NE 4.0mph /  6.4km/h 7.0mph /  11.3km/h 46% 0.00in /  0mm
18:39 58.4 °F /  14.7 °C 37.7 °F /  3.2 °C 30.29in /  1025.6hPa ENE 7.0mph /  11.3km/h 9.0mph /  14.5km/h 46% 0.00in /  0mm
18:44 58.3 °F /  14.6 °C 38.1 °F /  3.4 °C 30.29in /  1025.6hPa NE 5.0mph /  8km/h 9.0mph /  14.5km/h 47% 0.00in /  0mm
18:49 58.1 °F /  14.5 °C 38.0 °F /  3.3 °C 30.29in /  1025.6hPa NE 4.0mph /  6.4km/h 9.0mph /  14.5km/h 47% 0.00in /  0mm
18:54 58.0 °F /  14.4 °C 38.4 °F /  3.6 °C 30.29in /  1025.6hPa NE 4.0mph /  6.4km/h 10.0mph /  16.1km/h 48% 0.00in /  0mm
18:59 57.8 °F /  14.3 °C 39.3 °F /  4.1 °C 30.29in /  1025.6hPa NE 4.0mph /  6.4km/h 10.0mph /  16.1km/h 50% 0.00in /  0mm
19:04 57.4 °F /  14.1 °C 39.4 °F /  4.1 °C 30.29in /  1025.6hPa NNE 3.0mph /  4.8km/h 5.0mph /  8km/h 51% 0.00in /  0mm
19:09 57.1 °F /  13.9 °C 39.1 °F /  3.9 °C 30.28in /  1025.3hPa NE 4.0mph /  6.4km/h 7.0mph /  11.3km/h 51% 0.00in /  0mm
19:14 57.0 °F /  13.9 °C 40.0 °F /  4.4 °C 30.28in /  1025.3hPa NE 6.0mph /  9.7km/h 8.0mph /  12.9km/h 53% 0.00in /  0mm
19:19 56.7 °F /  13.7 °C 39.7 °F /  4.3 °C 30.28in /  1025.3hPa NE 4.0mph /  6.4km/h 12.0mph /  19.3km/h 53% 0.00in /  0mm
19:24 56.1 °F /  13.4 °C 39.7 °F /  4.3 °C 30.28in /  1025.3hPa NE 5.0mph /  8km/h 12.0mph /  19.3km/h 54% 0.00in /  0mm
19:29 55.9 °F /  13.3 °C 39.5 °F /  4.2 °C 30.28in /  1025.3hPa NE 5.0mph /  8km/h 11.0mph /  17.7km/h 54% 0.00in /  0mm
19:34 55.7 °F /  13.2 °C 39.8 °F /  4.3 °C 30.27in /  1024.9hPa NE 5.0mph /  8km/h 11.0mph /  17.7km/h 55% 0.00in /  0mm
19:39 55.5 °F /  13.1 °C 39.6 °F /  4.2 °C 30.27in /  1024.9hPa NE 8.0mph /  12.9km/h 11.0mph /  17.7km/h 55% 0.00in /  0mm
19:44 55.3 °F /  12.9 °C 39.4 °F /  4.1 °C 30.27in /  1024.9hPa NE 5.0mph /  8km/h 11.0mph /  17.7km/h 55% 0.00in /  0mm
19:49 55.3 °F /  12.9 °C 39.4 °F /  4.1 °C 30.27in /  1024.9hPa ENE 4.0mph /  6.4km/h 9.0mph /  14.5km/h 55% 0.00in /  0mm
19:54 55.3 °F /  12.9 °C 39.4 °F /  4.1 °C 30.27in /  1024.9hPa NNE 2.0mph /  3.2km/h 8.0mph /  12.9km/h 55% 0.00in /  0mm
19:59 55.1 °F /  12.8 °C 39.7 °F /  4.3 °C 30.27in /  1024.9hPa NE 2.0mph /  3.2km/h 8.0mph /  12.9km/h 56% 0.00in /  0mm
20:04 54.8 °F /  12.7 °C 39.4 °F /  4.1 °C 30.27in /  1024.9hPa NE 3.0mph /  4.8km/h 7.0mph /  11.3km/h 56% 0.00in /  0mm
20:09 54.7 °F /  12.6 °C 39.8 °F /  4.3 °C 30.28in /  1025.3hPa NE 4.0mph /  6.4km/h 10.0mph /  16.1km/h 57% 0.00in /  0mm
20:14 54.4 °F /  12.4 °C 39.5 °F /  4.2 °C 30.28in /  1025.3hPa NE 4.0mph /  6.4km/h 10.0mph /  16.1km/h 57% 0.00in /  0mm
20:19 54.3 °F /  12.4 °C 38.9 °F /  3.8 °C 30.27in /  1024.9hPa NE 4.0mph /  6.4km/h 10.0mph /  16.1km/h 56% 0.00in /  0mm
20:24 54.0 °F /  12.2 °C 38.6 °F /  3.7 °C 30.27in /  1024.9hPa NE 4.0mph /  6.4km/h 10.0mph /  16.1km/h 56% 0.00in /  0mm
20:29 53.9 °F /  12.2 °C 38.6 °F /  3.7 °C 30.27in /  1024.9hPa East 3.0mph /  4.8km/h 8.0mph /  12.9km/h 56% 0.00in /  0mm
20:34 53.7 °F /  12.1 °C 38.8 °F /  3.8 °C 30.27in /  1024.9hPa NE 7.0mph /  11.3km/h 8.0mph /  12.9km/h 57% 0.00in /  0mm
20:39 53.5 °F /  11.9 °C 38.2 °F /  3.4 °C 30.27in /  1024.9hPa ENE 4.0mph /  6.4km/h 9.0mph /  14.5km/h 56% 0.00in /  0mm
20:44 53.3 °F /  11.8 °C 38.0 °F /  3.3 °C 30.27in /  1024.9hPa NE 4.0mph /  6.4km/h 10.0mph /  16.1km/h 56% 0.00in /  0mm
20:49 53.2 °F /  11.8 °C 37.9 °F /  3.3 °C 30.27in /  1024.9hPa ENE 4.0mph /  6.4km/h 8.0mph /  12.9km/h 56% 0.00in /  0mm
20:54 53.0 °F /  11.7 °C 38.2 °F /  3.4 °C 30.27in /  1024.9hPa ENE 2.0mph /  3.2km/h 8.0mph /  12.9km/h 57% 0.00in /  0mm
20:59 52.9 °F /  11.6 °C 38.1 °F /  3.4 °C 30.27in /  1024.9hPa East 5.0mph /  8km/h 7.0mph /  11.3km/h 57% 0.00in /  0mm
21:04 52.6 °F /  11.4 °C 38.2 °F /  3.4 °C 30.28in /  1025.3hPa ENE 3.0mph /  4.8km/h 8.0mph /  12.9km/h 58% 0.00in /  0mm
21:09 52.3 °F /  11.3 °C 38.0 °F /  3.3 °C 30.28in /  1025.3hPa ENE 2.0mph /  3.2km/h 8.0mph /  12.9km/h 58% 0.00in /  0mm
21:14 52.3 °F /  11.3 °C 38.0 °F /  3.3 °C 30.28in /  1025.3hPa East 3.0mph /  4.8km/h 8.0mph /  12.9km/h 58% 0.00in /  0mm
21:19 52.1 °F /  11.2 °C 37.8 °F /  3.2 °C 30.28in /  1025.3hPa ENE 4.0mph /  6.4km/h 8.0mph /  12.9km/h 58% 0.00in /  0mm
21:24 52.1 °F /  11.2 °C 38.2 °F /  3.4 °C 30.29in /  1025.6hPa NE 2.0mph /  3.2km/h 8.0mph /  12.9km/h 59% 0.00in /  0mm
21:29 51.9 °F /  11.1 °C 38.0 °F /  3.3 °C 30.29in /  1025.6hPa ENE 2.0mph /  3.2km/h 7.0mph /  11.3km/h 59% 0.00in /  0mm
21:34 51.6 °F /  10.9 °C 38.2 °F /  3.4 °C 30.29in /  1025.6hPa ENE 3.0mph /  4.8km/h 7.0mph /  11.3km/h 60% 0.00in /  0mm
21:39 51.6 °F /  10.9 °C 38.2 °F /  3.4 °C 30.29in /  1025.6hPa ENE 3.0mph /  4.8km/h 8.0mph /  12.9km/h 60% 0.00in /  0mm
21:44 51.5 °F /  10.8 °C 38.1 °F /  3.4 °C 30.28in /  1025.3hPa ENE 4.0mph /  6.4km/h 8.0mph /  12.9km/h 60% 0.00in /  0mm
21:49 51.3 °F /  10.7 °C 37.9 °F /  3.3 °C 30.28in /  1025.3hPa East 3.0mph /  4.8km/h 8.0mph /  12.9km/h 60% 0.00in /  0mm
21:54 51.2 °F /  10.7 °C 37.8 °F /  3.2 °C 30.28in /  1025.3hPa East 1.0mph /  1.6km/h 9.0mph /  14.5km/h 60% 0.00in /  0mm
21:59 50.9 °F /  10.5 °C 37.9 °F /  3.3 °C 30.27in /  1024.9hPa East 2.0mph /  3.2km/h 5.0mph /  8km/h 61% 0.00in /  0mm
22:04 50.8 °F /  10.4 °C 37.8 °F /  3.2 °C 30.27in /  1024.9hPa East 3.0mph /  4.8km/h 8.0mph /  12.9km/h 61% 0.00in /  0mm
22:09 50.5 °F /  10.3 °C 38.0 °F /  3.3 °C 30.27in /  1024.9hPa ENE 4.0mph /  6.4km/h 6.0mph /  9.7km/h 62% 0.00in /  0mm
22:14 50.4 °F /  10.2 °C 38.3 °F /  3.5 °C 30.27in /  1024.9hPa East 3.0mph /  4.8km/h 7.0mph /  11.3km/h 63% 0.00in /  0mm
22:19 50.3 °F /  10.2 °C 37.8 °F /  3.2 °C 30.27in /  1024.9hPa ENE 3.0mph /  4.8km/h 6.0mph /  9.7km/h 62% 0.00in /  0mm
22:24 50.3 °F /  10.2 °C 38.2 °F /  3.4 °C 30.26in /  1024.6hPa East 2.0mph /  3.2km/h 5.0mph /  8km/h 63% 0.00in /  0mm
22:29 50.2 °F /  10.1 °C 38.1 °F /  3.4 °C 30.26in /  1024.6hPa East 2.0mph /  3.2km/h 5.0mph /  8km/h 63% 0.00in /  0mm
22:34 50.1 °F /  10.1 °C 38.0 °F /  3.3 °C 30.25in /  1024.3hPa East 2.0mph /  3.2km/h 6.0mph /  9.7km/h 63% 0.00in /  0mm
22:39 50.1 °F /  10.1 °C 38.0 °F /  3.3 °C 30.25in /  1024.3hPa East 2.0mph /  3.2km/h 6.0mph /  9.7km/h 63% 0.00in /  0mm
22:44 50.1 °F /  10.1 °C 38.0 °F /  3.3 °C 30.25in /  1024.3hPa East 2.0mph /  3.2km/h 5.0mph /  8km/h 63% 0.00in /  0mm
22:49 50.0 °F /  10 °C 38.3 °F /  3.5 °C 30.25in /  1024.3hPa East 2.0mph /  3.2km/h 5.0mph /  8km/h 64% 0.00in /  0mm
22:54 49.9 °F /  9.9 °C 38.2 °F /  3.4 °C 30.25in /  1024.3hPa East 2.0mph /  3.2km/h 5.0mph /  8km/h 64% 0.00in /  0mm
22:59 49.9 °F /  9.9 °C 38.2 °F /  3.4 °C 30.25in /  1024.3hPa East 2.0mph /  3.2km/h 7.0mph /  11.3km/h 64% 0.00in /  0mm
23:04 49.8 °F /  9.9 °C 38.1 °F /  3.4 °C 30.24in /  1023.9hPa East 1.0mph /  1.6km/h 8.0mph /  12.9km/h 64% 0.00in /  0mm
23:09 49.6 °F /  9.8 °C 37.9 °F /  3.3 °C 30.24in /  1023.9hPa SE 2.0mph /  3.2km/h 5.0mph /  8km/h 64% 0.00in /  0mm
23:14 49.5 °F /  9.7 °C 38.2 °F /  3.4 °C 30.24in /  1023.9hPa ESE 1.0mph /  1.6km/h 3.0mph /  4.8km/h 65% 0.00in /  0mm
23:19 49.4 °F /  9.7 °C 38.1 °F /  3.4 °C 30.24in /  1023.9hPa ENE 2.0mph /  3.2km/h 5.0mph /  8km/h 65% 0.00in /  0mm
23:24 49.4 °F /  9.7 °C 38.1 °F /  3.4 °C 30.24in /  1023.9hPa East 1.0mph /  1.6km/h 5.0mph /  8km/h 65% 0.00in /  0mm
23:29 49.2 °F /  9.6 °C 37.9 °F /  3.3 °C 30.24in /  1023.9hPa ESE 2.0mph /  3.2km/h 3.0mph /  4.8km/h 65% 0.00in /  0mm
23:34 49.2 °F /  9.6 °C 37.9 °F /  3.3 °C 30.24in /  1023.9hPa ESE 1.0mph /  1.6km/h 3.0mph /  4.8km/h 65% 0.00in /  0mm
23:39 49.2 °F /  9.6 °C 37.9 °F /  3.3 °C 30.23in /  1023.6hPa Calm   3.0mph /  4.8km/h 65% 0.00in /  0mm
23:44 49.3 °F /  9.6 °C 38.4 °F /  3.6 °C 30.23in /  1023.6hPa Calm   1.0mph /  1.6km/h 66% 0.00in /  0mm
23:49 49.3 °F /  9.6 °C 38.0 °F /  3.3 °C 30.23in /  1023.6hPa Calm   2.0mph /  3.2km/h 65% 0.00in /  0mm
23:54 49.1 °F /  9.5 °C 38.2 °F /  3.4 °C 30.23in /  1023.6hPa Calm   2.0mph /  3.2km/h 66% 0.00in /  0mm
23:59 49.0 °F /  9.4 °C 38.1 °F /  3.4 °C 30.23in /  1023.6hPa Calm   2.0mph /  3.2km/h 66% 0.00in /  0mm
Buffalo, New York, USA
Compliments of Weather Underground - 2.5 mb